MSC Diego — 3FZP8 — position and weather

sailwx.info

Track history (hours):
 
Tides and Currents Weather Stations Pressure Air Temp Water Temp Dewpoint Dewpoint Depression Visibility Wind Speed Wind Dir Waves Ship Positions

MSC Diego

Last reported at 2018-Feb-22 06:00 UTC. Time now 2018-Feb-22 06:20 UTC.
Position N 51°18' E 004°16'.

Type: Ship (hazmat cat A). MMSI: 357106000.

Date/timePositionNaut miles runAvg speedWind from/ knotsBaromVisibWave heightAir tempDewpointWater temp
2018-Feb-22 06:00N 51°18' E 004°16'0 0.0
2018-Feb-22 05:30N 51°18' E 004°16'0 0.0
2018-Feb-22 05:00N 51°18' E 004°16'0 0.0
2018-Feb-22 04:30N 51°18' E 004°16'0 0.0
2018-Feb-22 04:00N 51°18' E 004°16'0 0.0
2018-Feb-22 03:30N 51°18' E 004°16'0 0.1
2018-Feb-22 02:57N 51°18' E 004°16'0 0.0
2018-Feb-22 02:30N 51°18' E 004°16'0 0.0
2018-Feb-22 02:00N 51°18' E 004°16'0 0.0
2018-Feb-22 01:30N 51°18' E 004°16'0 0.0
2018-Feb-22 01:00N 51°18' E 004°16'0 0.0
2018-Feb-22 00:30N 51°18' E 004°16'0 0.0
2018-Feb-22 00:00N 51°18' E 004°16'0 0.0
2018-Feb-21 23:30N 51°18' E 004°16'0 0.0
2018-Feb-21 23:00N 51°18' E 004°16'0 0.1
2018-Feb-21 22:30N 51°18' E 004°16'0 0.1
2018-Feb-21 22:00N 51°18' E 004°16'0 0.0
2018-Feb-21 21:30N 51°18' E 004°16'0 0.0
2018-Feb-21 21:00N 51°18' E 004°16'0 0.0
2018-Feb-21 20:27N 51°18' E 004°16'0 0.0
2018-Feb-21 20:00N 51°18' E 004°16'0 0.0
2018-Feb-21 19:30N 51°18' E 004°16'0 0.0
2018-Feb-21 18:57N 51°18' E 004°16'0 0.0
2018-Feb-21 18:21N 51°18' E 004°16'0 0.0
2018-Feb-21 17:57N 51°18' E 004°16'0 0.0
2018-Feb-21 17:30N 51°18' E 004°16'0 0.0
2018-Feb-21 17:00N 51°18' E 004°16'0 0.0
2018-Feb-21 16:30N 51°18' E 004°16'0 0.0
2018-Feb-21 16:00N 51°18' E 004°16'0 0.6
2018-Feb-21 15:31N 51°18' E 004°16'3 5.8
2018-Feb-21 15:00N 51°21' E 004°17'0 0.7
2018-Feb-21 14:26N 51°21' E 004°17'0 0.0
2018-Feb-21 14:00N 51°21' E 004°17'0 0.6
2018-Feb-21 13:30N 51°21' E 004°18'3 5.4
2018-Feb-21 13:00N 51°18' E 004°19'0 0.9
2018-Feb-21 12:28N 51°18' E 004°20'0 0.0
2018-Feb-21 11:52N 51°18' E 004°20'0 0.0
2018-Feb-21 11:28N 51°18' E 004°20'0 0.0
2018-Feb-21 10:58N 51°18' E 004°20'0 0.0
2018-Feb-21 10:28N 51°18' E 004°20'0 0.0
2018-Feb-21 09:58N 51°18' E 004°20'0 0.0
2018-Feb-21 09:28N 51°18' E 004°20'0 0.0
2018-Feb-21 08:55N 51°18' E 004°20'0 0.0
2018-Feb-21 08:25N 51°18' E 004°20'0 0.0
2018-Feb-21 07:58N 51°18' E 004°20'0 0.0
2018-Feb-21 07:28N 51°18' E 004°20'0 0.0
2018-Feb-21 06:58N 51°18' E 004°20'0 0.0
2018-Feb-21 06:28N 51°18' E 004°20'0 0.0
2018-Feb-21 05:55N 51°18' E 004°20'0 0.0
2018-Feb-21 05:28N 51°18' E 004°20'0 0.0
2018-Feb-21 04:55N 51°18' E 004°20'1 2.2
2018-Feb-21 04:30N 51°17' E 004°20'1 1.3
2018-Feb-21 04:00N 51°18' E 004°20'3 6.2
2018-Feb-21 03:30N 51°20' E 004°18'1 1.0
2018-Feb-21 03:00N 51°21' E 004°17'0 0.0
2018-Feb-21 02:30N 51°21' E 004°17'2 3.3
2018-Feb-21 02:00N 51°21' E 004°15'4 8.0
2018-Feb-21 01:30N 51°22' E 004°08'611.3
2018-Feb-21 01:00N 51°26' E 004°01'611.5
2018-Feb-21 00:30N 51°22' E 003°54'611.1
2018-Feb-20 23:58N 51°22' E 003°45'612.1
2018-Feb-20 23:31N 51°26' E 003°40'4 7.7
2018-Feb-20 23:01N 51°25' E 003°34'611.2
2018-Feb-20 22:31N 51°25' E 003°25'511.0
2018-Feb-20 22:00N 51°24' E 003°16'510.6
2018-Feb-20 21:30N 51°24' E 003°08'510.3
2018-Feb-20 21:00N 51°23' E 002°59'611.3
2018-Feb-20 20:31N 51°22' E 002°51'510.6
2018-Feb-20 20:00N 51°21' E 002°42'5 9.6
2018-Feb-20 19:26N 51°22' E 002°34'4 9.6
2018-Feb-20 19:00N 51°21' E 002°27'510.8
2018-Feb-20 18:30N 51°19' E 002°19'510.7
2018-Feb-20 18:01N 51°16' E 002°12'611.8
2018-Feb-20 17:30N 51°14' E 002°04'713.6
2018-Feb-20 17:00N 51°10' E 001°54'714.3
2018-Feb-20 16:31N 51°06' E 001°44'815.5
2018-Feb-20 16:01N 51°01' E 001°36'816.0
2018-Feb-20 15:30N 50°54' E 001°28'1117.5
2018-Feb-20 14:51N 50°44' E 001°23'4115.8
2018-Feb-20 12:14N 50°25' E 000°25'416.7
2018-Feb-20 12:00N 50°24' E 000°19'817.0
2018-Feb-20 11:30N 50°22' E 000°06'816.8
2018-Feb-20 11:00N 50°20' W 000°07'916.9
2018-Feb-20 10:30N 50°17' W 000°19'917.2
2018-Feb-20 10:00N 50°15' W 000°32'817.1
2018-Feb-20 09:31N 50°13' W 000°45'917.3
2018-Feb-20 09:01N 50°11' W 000°58'917.4
2018-Feb-20 08:30N 50°09' W 001°12'918.0
2018-Feb-20 08:00N 50°06' W 001°25'917.6
2018-Feb-20 07:30N 50°04' W 001°38'917.7
2018-Feb-20 07:00N 50°01' W 001°51'917.4
2018-Feb-20 06:30N 49°58' W 002°04'816.8
2018-Feb-20 06:01N 49°55' W 002°16'916.6
2018-Feb-20 05:28N 49°52' W 002°29'1016.8
2018-Feb-20 04:53N 49°50' W 002°44'616.7
2018-Feb-20 04:30N 49°48' W 002°53'916.8
2018-Feb-20 03:58N 49°42' W 003°05'817.0
2018-Feb-20 03:30N 49°38' W 003°15'1917.1
2018-Feb-20 02:22N 49°29' W 003°41'617.2
2018-Feb-20 02:00N 49°26' W 003°50'917.1
2018-Feb-20 01:30N 49°22' W 004°01'1017.1
2018-Feb-20 00:56N 49°17' W 004°14'816.9
2018-Feb-20 00:27N 49°13' W 004°25'817.0
2018-Feb-19 23:58N 49°08' W 004°35'817.0
2018-Feb-19 23:30N 49°04' W 004°45'817.0
2018-Feb-19 23:01N 48°59' W 004°56'917.3
2018-Feb-19 22:30N 48°56' W 005°08'917.7
2018-Feb-19 22:01N 48°52' W 005°20'1018.4
2018-Feb-19 21:29N 48°49' W 005°34'918.3
2018-Feb-19 20:59N 48°42' W 005°43'918.7
2018-Feb-19 20:30N 48°34' W 005°50'1018.8
2018-Feb-19 19:57N 48°25' W 005°57'1719.1
2018-Feb-19 19:05N 48°10' W 006°07'719.4
2018-Feb-19 18:44N 48°03' W 006°12'819.6
2018-Feb-19 18:20N 47°57' W 006°18'1619.7
2018-Feb-19 17:32N 47°42' W 006°27'220.2
2018-Feb-19 17:26N 47°41' W 006°28'54818.7
2018-Feb-18 12:04N 39°14' W 011°15'618.7
2018-Feb-18 11:44N 39°08' W 011°18'818.8
2018-Feb-18 11:18N 39°00' W 011°21'818.8
2018-Feb-18 10:53N 38°53' W 011°24'2818.7
2018-Feb-18 09:25N 38°27' W 011°34'57518.8
2018-Feb-17 02:51N 29°16' W 014°56'1018.9
2018-Feb-17 02:18N 29°07' W 014°60'619.0
2018-Feb-17 01:58N 29°00' W 015°02'1219.0
2018-Feb-17 01:19N 28°49' W 015°06'619.0
2018-Feb-17 01:00N 28°43' W 015°08'918.8
2018-Feb-17 00:30N 28°34' W 015°11'918.9
2018-Feb-17 00:00N 28°25' W 015°14'918.8
2018-Feb-16 23:30N 28°16' W 015°17'917.8
2018-Feb-16 23:00N 28°08' W 015°21'4 7.4
2018-Feb-16 22:30N 28°08' W 015°25'0 0.5
2018-Feb-16 21:59N 28°08' W 015°25'0 0.0
2018-Feb-16 21:29N 28°08' W 015°25'0 0.0
2018-Feb-16 20:59N 28°08' W 015°25'0 0.0
2018-Feb-16 20:29N 28°08' W 015°25'0 0.0
2018-Feb-16 19:59N 28°08' W 015°25'0 0.0
2018-Feb-16 19:29N 28°08' W 015°25'0 0.0
2018-Feb-16 18:59N 28°08' W 015°25'0 0.0
2018-Feb-16 18:29N 28°08' W 015°25'0 0.0
2018-Feb-16 17:59N 28°08' W 015°25'0 0.0
2018-Feb-16 17:29N 28°08' W 015°25'0 0.0
2018-Feb-16 16:59N 28°08' W 015°25'0 0.0
2018-Feb-16 16:20N 28°08' W 015°25'0 0.0
2018-Feb-16 15:59N 28°08' W 015°25'0 0.0
2018-Feb-16 15:29N 28°08' W 015°25'0 0.0
2018-Feb-16 14:50N 28°08' W 015°25'0 0.0
2018-Feb-16 14:20N 28°08' W 015°25'0 0.0
2018-Feb-16 13:56N 28°08' W 015°25'0 0.0
2018-Feb-16 13:29N 28°08' W 015°25'0 0.0
2018-Feb-16 12:59N 28°08' W 015°25'0 0.0
2018-Feb-16 12:23N 28°08' W 015°25'0 0.0
2018-Feb-16 11:53N 28°08' W 015°25'0 0.0
2018-Feb-16 11:23N 28°08' W 015°25'0 0.0
2018-Feb-16 10:56N 28°08' W 015°25'0 0.0
2018-Feb-16 10:23N 28°08' W 015°25'0 0.0
2018-Feb-16 09:56N 28°08' W 015°25'0 0.0
2018-Feb-16 09:26N 28°08' W 015°25'0 0.0
2018-Feb-16 08:56N 28°08' W 015°25'0 0.0
2018-Feb-16 08:26N 28°08' W 015°25'0 0.0
2018-Feb-16 07:59N 28°08' W 015°25'0 0.0
2018-Feb-16 07:29N 28°08' W 015°25'1 1.8
2018-Feb-16 07:00N 28°07' W 015°24'2 3.6
2018-Feb-16 06:29N 28°07' W 015°22'0 0.9
2018-Feb-16 06:00N 28°07' W 015°22'2 4.9
2018-Feb-16 05:30N 28°06' W 015°19'4 7.9
2018-Feb-16 05:00N 28°03' W 015°16'4 7.5
2018-Feb-16 04:30N 27°59' W 015°16'4 7.8
2018-Feb-16 04:00N 27°56' W 015°16'510.1
2018-Feb-16 03:30N 27°51' W 015°16'612.7
2018-Feb-16 03:00N 27°44' W 015°16'712.7
2018-Feb-16 02:29N 27°38' W 015°18'  
Track history (hours):
 
Tides and Currents Weather Stations Pressure Air Temp Water Temp Dewpoint Dewpoint Depression Visibility Wind Speed Wind Dir Waves Ship Positions

MSC Diego

Last reported at 2018-Feb-22 06:00 UTC. Time now 2018-Feb-22 06:20 UTC.
Position N 51°18' E 004°16'.

Type: Ship (hazmat cat A). MMSI: 357106000.

Date/timePositionNaut miles runAvg speedWind from/ knotsBaromVisibWave heightAir tempDewpointWater temp
2018-Feb-22 06:00N 51°18' E 004°16'0 0.0
2018-Feb-22 05:30N 51°18' E 004°16'0 0.0
2018-Feb-22 05:00N 51°18' E 004°16'0 0.0
2018-Feb-22 04:30N 51°18' E 004°16'0 0.0
2018-Feb-22 04:00N 51°18' E 004°16'0 0.0
2018-Feb-22 03:30N 51°18' E 004°16'0 0.1
2018-Feb-22 02:57N 51°18' E 004°16'0 0.0
2018-Feb-22 02:30N 51°18' E 004°16'0 0.0
2018-Feb-22 02:00N 51°18' E 004°16'0 0.0
2018-Feb-22 01:30N 51°18' E 004°16'0 0.0
2018-Feb-22 01:00N 51°18' E 004°16'0 0.0
2018-Feb-22 00:30N 51°18' E 004°16'0 0.0
2018-Feb-22 00:00N 51°18' E 004°16'0 0.0
2018-Feb-21 23:30N 51°18' E 004°16'0 0.0
2018-Feb-21 23:00N 51°18' E 004°16'0 0.1
2018-Feb-21 22:30N 51°18' E 004°16'0 0.1
2018-Feb-21 22:00N 51°18' E 004°16'0 0.0
2018-Feb-21 21:30N 51°18' E 004°16'0 0.0
2018-Feb-21 21:00N 51°18' E 004°16'0 0.0
2018-Feb-21 20:27N 51°18' E 004°16'0 0.0
2018-Feb-21 20:00N 51°18' E 004°16'0 0.0
2018-Feb-21 19:30N 51°18' E 004°16'0 0.0
2018-Feb-21 18:57N 51°18' E 004°16'0 0.0
2018-Feb-21 18:21N 51°18' E 004°16'0 0.0
2018-Feb-21 17:57N 51°18' E 004°16'0 0.0
2018-Feb-21 17:30N 51°18' E 004°16'0 0.0
2018-Feb-21 17:00N 51°18' E 004°16'0 0.0
2018-Feb-21 16:30N 51°18' E 004°16'0 0.0
2018-Feb-21 16:00N 51°18' E 004°16'0 0.6
2018-Feb-21 15:31N 51°18' E 004°16'3 5.8
2018-Feb-21 15:00N 51°21' E 004°17'0 0.7
2018-Feb-21 14:26N 51°21' E 004°17'0 0.0
2018-Feb-21 14:00N 51°21' E 004°17'0 0.6
2018-Feb-21 13:30N 51°21' E 004°18'3 5.4
2018-Feb-21 13:00N 51°18' E 004°19'0 0.9
2018-Feb-21 12:28N 51°18' E 004°20'0 0.0
2018-Feb-21 11:52N 51°18' E 004°20'0 0.0
2018-Feb-21 11:28N 51°18' E 004°20'0 0.0
2018-Feb-21 10:58N 51°18' E 004°20'0 0.0
2018-Feb-21 10:28N 51°18' E 004°20'0 0.0
2018-Feb-21 09:58N 51°18' E 004°20'0 0.0
2018-Feb-21 09:28N 51°18' E 004°20'0 0.0
2018-Feb-21 08:55N 51°18' E 004°20'0 0.0
2018-Feb-21 08:25N 51°18' E 004°20'0 0.0
2018-Feb-21 07:58N 51°18' E 004°20'0 0.0
2018-Feb-21 07:28N 51°18' E 004°20'0 0.0
2018-Feb-21 06:58N 51°18' E 004°20'0 0.0
2018-Feb-21 06:28N 51°18' E 004°20'0 0.0
2018-Feb-21 05:55N 51°18' E 004°20'0 0.0
2018-Feb-21 05:28N 51°18' E 004°20'0 0.0
2018-Feb-21 04:55N 51°18' E 004°20'1 2.2
2018-Feb-21 04:30N 51°17' E 004°20'1 1.3
2018-Feb-21 04:00N 51°18' E 004°20'3 6.2
2018-Feb-21 03:30N 51°20' E 004°18'1 1.0
2018-Feb-21 03:00N 51°21' E 004°17'0 0.0
2018-Feb-21 02:30N 51°21' E 004°17'2 3.3
2018-Feb-21 02:00N 51°21' E 004°15'4 8.0
2018-Feb-21 01:30N 51°22' E 004°08'611.3
2018-Feb-21 01:00N 51°26' E 004°01'611.5
2018-Feb-21 00:30N 51°22' E 003°54'611.1
2018-Feb-20 23:58N 51°22' E 003°45'612.1
2018-Feb-20 23:31N 51°26' E 003°40'4 7.7
2018-Feb-20 23:01N 51°25' E 003°34'611.2
2018-Feb-20 22:31N 51°25' E 003°25'511.0
2018-Feb-20 22:00N 51°24' E 003°16'510.6
2018-Feb-20 21:30N 51°24' E 003°08'510.3
2018-Feb-20 21:00N 51°23' E 002°59'611.3
2018-Feb-20 20:31N 51°22' E 002°51'510.6
2018-Feb-20 20:00N 51°21' E 002°42'5 9.6
2018-Feb-20 19:26N 51°22' E 002°34'4 9.6
2018-Feb-20 19:00N 51°21' E 002°27'510.8
2018-Feb-20 18:30N 51°19' E 002°19'510.7
2018-Feb-20 18:01N 51°16' E 002°12'611.8
2018-Feb-20 17:30N 51°14' E 002°04'713.6
2018-Feb-20 17:00N 51°10' E 001°54'714.3
2018-Feb-20 16:31N 51°06' E 001°44'815.5
2018-Feb-20 16:01N 51°01' E 001°36'816.0
2018-Feb-20 15:30N 50°54' E 001°28'1117.5
2018-Feb-20 14:51N 50°44' E 001°23'4115.8
2018-Feb-20 12:14N 50°25' E 000°25'416.7
2018-Feb-20 12:00N 50°24' E 000°19'817.0
2018-Feb-20 11:30N 50°22' E 000°06'816.8
2018-Feb-20 11:00N 50°20' W 000°07'916.9
2018-Feb-20 10:30N 50°17' W 000°19'917.2
2018-Feb-20 10:00N 50°15' W 000°32'817.1
2018-Feb-20 09:31N 50°13' W 000°45'917.3
2018-Feb-20 09:01N 50°11' W 000°58'917.4
2018-Feb-20 08:30N 50°09' W 001°12'918.0
2018-Feb-20 08:00N 50°06' W 001°25'917.6
2018-Feb-20 07:30N 50°04' W 001°38'917.7
2018-Feb-20 07:00N 50°01' W 001°51'917.4
2018-Feb-20 06:30N 49°58' W 002°04'816.8
2018-Feb-20 06:01N 49°55' W 002°16'916.6
2018-Feb-20 05:28N 49°52' W 002°29'1016.8
2018-Feb-20 04:53N 49°50' W 002°44'616.7
2018-Feb-20 04:30N 49°48' W 002°53'916.8
2018-Feb-20 03:58N 49°42' W 003°05'817.0
2018-Feb-20 03:30N 49°38' W 003°15'1917.1
2018-Feb-20 02:22N 49°29' W 003°41'617.2
2018-Feb-20 02:00N 49°26' W 003°50'917.1
2018-Feb-20 01:30N 49°22' W 004°01'1017.1
2018-Feb-20 00:56N 49°17' W 004°14'816.9
2018-Feb-20 00:27N 49°13' W 004°25'817.0
2018-Feb-19 23:58N 49°08' W 004°35'817.0
2018-Feb-19 23:30N 49°04' W 004°45'817.0
2018-Feb-19 23:01N 48°59' W 004°56'917.3
2018-Feb-19 22:30N 48°56' W 005°08'917.7
2018-Feb-19 22:01N 48°52' W 005°20'1018.4
2018-Feb-19 21:29N 48°49' W 005°34'918.3
2018-Feb-19 20:59N 48°42' W 005°43'918.7
2018-Feb-19 20:30N 48°34' W 005°50'1018.8
2018-Feb-19 19:57N 48°25' W 005°57'1719.1
2018-Feb-19 19:05N 48°10' W 006°07'719.4
2018-Feb-19 18:44N 48°03' W 006°12'819.6
2018-Feb-19 18:20N 47°57' W 006°18'1619.7
2018-Feb-19 17:32N 47°42' W 006°27'220.2
2018-Feb-19 17:26N 47°41' W 006°28'54818.7
2018-Feb-18 12:04N 39°14' W 011°15'618.7
2018-Feb-18 11:44N 39°08' W 011°18'818.8
2018-Feb-18 11:18N 39°00' W 011°21'818.8
2018-Feb-18 10:53N 38°53' W 011°24'2818.7
2018-Feb-18 09:25N 38°27' W 011°34'57518.8
2018-Feb-17 02:51N 29°16' W 014°56'1018.9
2018-Feb-17 02:18N 29°07' W 014°60'619.0
2018-Feb-17 01:58N 29°00' W 015°02'1219.0
2018-Feb-17 01:19N 28°49' W 015°06'619.0
2018-Feb-17 01:00N 28°43' W 015°08'918.8
2018-Feb-17 00:30N 28°34' W 015°11'918.9
2018-Feb-17 00:00N 28°25' W 015°14'918.8
2018-Feb-16 23:30N 28°16' W 015°17'917.8
2018-Feb-16 23:00N 28°08' W 015°21'4 7.4
2018-Feb-16 22:30N 28°08' W 015°25'0 0.5
2018-Feb-16 21:59N 28°08' W 015°25'0 0.0
2018-Feb-16 21:29N 28°08' W 015°25'0 0.0
2018-Feb-16 20:59N 28°08' W 015°25'0 0.0
2018-Feb-16 20:29N 28°08' W 015°25'0 0.0
2018-Feb-16 19:59N 28°08' W 015°25'0 0.0
2018-Feb-16 19:29N 28°08' W 015°25'0 0.0
2018-Feb-16 18:59N 28°08' W 015°25'0 0.0
2018-Feb-16 18:29N 28°08' W 015°25'0 0.0
2018-Feb-16 17:59N 28°08' W 015°25'0 0.0
2018-Feb-16 17:29N 28°08' W 015°25'0 0.0
2018-Feb-16 16:59N 28°08' W 015°25'0 0.0
2018-Feb-16 16:20N 28°08' W 015°25'0 0.0
2018-Feb-16 15:59N 28°08' W 015°25'0 0.0
2018-Feb-16 15:29N 28°08' W 015°25'0 0.0
2018-Feb-16 14:50N 28°08' W 015°25'0 0.0
2018-Feb-16 14:20N 28°08' W 015°25'0 0.0
2018-Feb-16 13:56N 28°08' W 015°25'0 0.0
2018-Feb-16 13:29N 28°08' W 015°25'0 0.0
2018-Feb-16 12:59N 28°08' W 015°25'0 0.0
2018-Feb-16 12:23N 28°08' W 015°25'0 0.0
2018-Feb-16 11:53N 28°08' W 015°25'0 0.0
2018-Feb-16 11:23N 28°08' W 015°25'0 0.0
2018-Feb-16 10:56N 28°08' W 015°25'0 0.0
2018-Feb-16 10:23N 28°08' W 015°25'0 0.0
2018-Feb-16 09:56N 28°08' W 015°25'0 0.0
2018-Feb-16 09:26N 28°08' W 015°25'0 0.0
2018-Feb-16 08:56N 28°08' W 015°25'0 0.0
2018-Feb-16 08:26N 28°08' W 015°25'0 0.0
2018-Feb-16 07:59N 28°08' W 015°25'0 0.0
2018-Feb-16 07:29N 28°08' W 015°25'1 1.8
2018-Feb-16 07:00N 28°07' W 015°24'2 3.6
2018-Feb-16 06:29N 28°07' W 015°22'0 0.9
2018-Feb-16 06:00N 28°07' W 015°22'2 4.9
2018-Feb-16 05:30N 28°06' W 015°19'4 7.9
2018-Feb-16 05:00N 28°03' W 015°16'4 7.5
2018-Feb-16 04:30N 27°59' W 015°16'4 7.8
2018-Feb-16 04:00N 27°56' W 015°16'510.1
2018-Feb-16 03:30N 27°51' W 015°16'612.7
2018-Feb-16 03:00N 27°44' W 015°16'712.7
2018-Feb-16 02:29N 27°38' W 015°18'  

Dump ship's entire track history